createdAt,value
2023-05-17T00:01:56.624Z,10.13
2023-05-17T00:04:24.071Z,10.20
2023-05-17T00:06:51.272Z,11.25
2023-05-17T00:09:18.572Z,12.82
2023-05-17T00:11:45.985Z,9.88
2023-05-17T00:14:13.111Z,11.25
2023-05-17T00:16:40.289Z,11.48
2023-05-17T00:19:09.566Z,8.10
2023-05-17T00:21:36.940Z,10.65
2023-05-17T00:24:04.356Z,8.82
2023-05-17T00:26:33.684Z,10.35
2023-05-17T00:29:01.067Z,7.28
2023-05-17T00:31:28.337Z,10.50
2023-05-17T00:33:55.719Z,8.45
2023-05-17T00:36:23.002Z,10.75
2023-05-17T00:38:50.177Z,10.75
2023-05-17T00:41:18.167Z,8.32
2023-05-17T00:43:45.315Z,10.88
2023-05-17T00:46:12.696Z,13.13
2023-05-17T00:48:40.242Z,10.77
2023-05-17T00:51:07.564Z,11.43
2023-05-17T00:53:37.080Z,10.77
2023-05-17T00:56:05.488Z,13.80
2023-05-17T00:58:33.878Z,9.98
2023-05-17T01:01:01.836Z,10.68
2023-05-17T01:03:29.511Z,12.55
2023-05-17T01:05:56.769Z,12.07
2023-05-17T01:08:23.923Z,11.00
2023-05-17T01:11:05.416Z,12.30
2023-05-17T01:13:46.296Z,12.68
2023-05-17T01:16:20.301Z,10.40
2023-05-17T01:18:54.198Z,10.07
2023-05-17T01:21:47.776Z,12.75
2023-05-17T01:24:23.600Z,13.93
2023-05-17T01:26:51.200Z,9.18
2023-05-17T01:29:21.653Z,10.15
2023-05-17T01:31:49.555Z,16.77
2023-05-17T01:34:28.202Z,14.65
2023-05-17T01:36:57.601Z,11.38
2023-05-17T01:39:25.078Z,9.35
2023-05-17T01:42:05.028Z,10.50
2023-05-17T01:44:48.656Z,12.10
2023-05-17T01:47:30.660Z,12.77
2023-05-17T01:49:59.786Z,12.32
2023-05-17T01:52:32.314Z,13.45
2023-05-17T01:55:09.122Z,10.43
2023-05-17T01:57:37.514Z,10.85
2023-05-17T02:00:11.702Z,11.20
2023-05-17T02:02:41.892Z,9.50
2023-05-17T02:05:09.679Z,8.05
2023-05-17T02:07:40.504Z,12.50
2023-05-17T02:10:08.831Z,8.98
2023-05-17T02:12:36.773Z,11.35
2023-05-17T02:15:05.007Z,11.18
2023-05-17T02:17:32.293Z,10.90
2023-05-17T02:19:59.550Z,13.27
2023-05-17T02:22:27.912Z,13.60
2023-05-17T02:24:57.656Z,9.05
2023-05-17T02:27:24.887Z,10.65
2023-05-17T02:29:53.421Z,12.82
2023-05-17T02:32:20.887Z,10.27
2023-05-17T02:34:48.089Z,9.20
2023-05-17T02:37:15.641Z,8.70
2023-05-17T02:39:44.648Z,10.98
2023-05-17T02:42:12.073Z,10.55
2023-05-17T02:44:39.521Z,13.55
2023-05-17T02:47:06.925Z,14.52
2023-05-17T02:49:35.505Z,15.93
2023-05-17T02:52:03.666Z,15.18
2023-05-17T02:54:30.928Z,12.20
2023-05-17T02:56:58.138Z,14.82
2023-05-17T02:59:25.672Z,11.85
2023-05-17T03:01:52.887Z,9.57
2023-05-17T03:04:20.672Z,11.20
2023-05-17T03:06:48.308Z,11.98
2023-05-17T03:09:15.727Z,12.07
2023-05-17T03:11:43.351Z,12.57
2023-05-17T03:14:11.727Z,14.02
2023-05-17T03:16:39.070Z,10.70
2023-05-17T03:19:06.780Z,10.85
2023-05-17T03:21:34.429Z,13.82
2023-05-17T03:24:01.658Z,14.20
2023-05-17T03:26:29.147Z,13.68
2023-05-17T03:28:56.648Z,15.90
2023-05-17T03:31:23.907Z,13.62
2023-05-17T03:33:51.268Z,17.00
2023-05-17T03:36:19.564Z,17.00
2023-05-17T03:38:46.794Z,15.50
2023-05-17T03:41:14.200Z,16.35
2023-05-17T03:43:42.049Z,16.33
2023-05-17T03:46:10.041Z,13.70
2023-05-17T03:48:37.287Z,16.35
2023-05-17T03:51:05.182Z,17.20
2023-05-17T03:53:33.570Z,18.27
2023-05-17T03:56:01.375Z,13.80
2023-05-17T03:58:29.378Z,13.02
2023-05-17T04:00:56.934Z,11.90
2023-05-17T04:03:24.534Z,11.90
2023-05-17T04:05:52.150Z,9.43
2023-05-17T04:08:19.272Z,12.18
2023-05-17T04:10:46.811Z,12.68
2023-05-17T04:13:14.649Z,7.80
2023-05-17T04:15:41.967Z,7.75
2023-05-17T04:18:09.537Z,8.85
2023-05-17T04:20:36.860Z,9.20
2023-05-17T04:23:04.149Z,10.10
2023-05-17T04:25:32.339Z,8.10
2023-05-17T04:27:59.601Z,7.97
2023-05-17T04:30:26.844Z,10.20
2023-05-17T04:32:54.513Z,11.57
2023-05-17T04:35:22.261Z,7.97
2023-05-17T04:37:50.273Z,9.48
2023-05-17T04:40:18.012Z,10.57
2023-05-17T04:42:45.773Z,11.00
2023-05-17T04:45:15.520Z,8.65
2023-05-17T04:47:43.828Z,10.35
2023-05-17T04:50:12.397Z,10.30
2023-05-17T04:52:39.752Z,8.82
2023-05-17T04:55:08.463Z,11.80
2023-05-17T04:57:36.001Z,9.98
2023-05-17T05:00:06.386Z,7.57
2023-05-17T05:02:34.256Z,6.65
2023-05-17T05:05:04.932Z,9.20
2023-05-17T05:07:32.936Z,8.60
2023-05-17T05:10:01.189Z,6.28
2023-05-17T05:12:29.036Z,6.70
2023-05-17T05:14:56.487Z,11.48
2023-05-17T05:17:25.056Z,7.97
2023-05-17T05:19:52.843Z,4.93
2023-05-17T05:22:20.233Z,8.82
2023-05-17T05:24:47.737Z,10.20
2023-05-17T05:27:15.115Z,7.65
2023-05-17T05:29:42.728Z,8.60
2023-05-17T05:32:10.466Z,9.40
2023-05-17T05:34:38.905Z,9.10
2023-05-17T05:37:06.169Z,8.15
2023-05-17T05:39:33.775Z,7.62
2023-05-17T05:42:01.610Z,6.60
2023-05-17T05:44:30.922Z,10.30
2023-05-17T05:46:58.936Z,8.00
2023-05-17T05:49:26.363Z,8.77
2023-05-17T05:51:54.175Z,6.50
2023-05-17T05:54:21.993Z,6.35
2023-05-17T05:56:51.308Z,5.62
2023-05-17T05:59:18.865Z,7.87
2023-05-17T06:01:46.395Z,7.25
2023-05-17T06:04:13.890Z,9.35
2023-05-17T06:06:41.383Z,6.70
2023-05-17T06:09:12.214Z,6.18
2023-05-17T06:11:39.801Z,8.07
2023-05-17T06:14:07.115Z,7.43
2023-05-17T06:16:34.558Z,6.72
2023-05-17T06:19:03.284Z,9.27
2023-05-17T06:21:31.260Z,6.85
2023-05-17T06:23:58.732Z,7.32
2023-05-17T06:26:26.255Z,13.48
2023-05-17T06:28:53.465Z,9.13
2023-05-17T06:31:21.314Z,9.63
2023-05-17T06:33:49.055Z,9.70
2023-05-17T06:36:16.252Z,8.10
2023-05-17T06:38:43.792Z,9.23
2023-05-17T06:41:11.374Z,12.40
2023-05-17T06:43:38.577Z,9.25
2023-05-17T06:46:05.777Z,9.88
2023-05-17T06:48:33.434Z,8.85
2023-05-17T06:51:01.103Z,10.05
2023-05-17T06:53:28.297Z,9.88
2023-05-17T06:55:55.953Z,13.23
2023-05-17T06:58:23.176Z,9.65
2023-05-17T07:00:50.384Z,9.48
2023-05-17T07:03:17.991Z,10.70
2023-05-17T07:05:45.272Z,11.82
2023-05-17T07:08:12.560Z,10.98
2023-05-17T07:10:40.087Z,10.43
2023-05-17T07:13:07.290Z,11.07
2023-05-17T07:15:34.515Z,11.63
2023-05-17T07:18:02.441Z,14.13
2023-05-17T07:20:29.930Z,10.82
2023-05-17T07:22:57.177Z,12.35
2023-05-17T07:25:24.660Z,9.35
2023-05-17T07:27:51.859Z,9.48
2023-05-17T07:30:19.124Z,10.43
2023-05-17T07:32:46.681Z,9.65
2023-05-17T07:35:14.293Z,9.95
2023-05-17T07:37:41.854Z,11.38
2023-05-17T07:40:10.087Z,8.07
2023-05-17T07:42:37.373Z,12.52
2023-05-17T07:45:04.973Z,8.48
2023-05-17T07:47:32.596Z,9.02
2023-05-17T07:49:59.951Z,9.02
2023-05-17T07:52:27.183Z,10.15
2023-05-17T07:54:54.764Z,8.48
2023-05-17T07:57:22.077Z,12.93
2023-05-17T07:59:49.260Z,7.50
2023-05-17T08:02:16.744Z,9.82
2023-05-17T08:04:44.387Z,9.77
2023-05-17T08:07:11.588Z,6.70
2023-05-17T08:09:40.221Z,9.68
2023-05-17T08:12:07.717Z,6.07
2023-05-17T08:14:36.943Z,8.40
2023-05-17T08:17:04.421Z,8.13
2023-05-17T08:19:32.150Z,6.78
2023-05-17T08:21:59.743Z,6.57
2023-05-17T08:24:26.939Z,8.13
2023-05-17T08:26:54.403Z,9.07
2023-05-17T08:29:21.678Z,7.15
2023-05-17T08:31:48.885Z,6.53
2023-05-17T08:34:16.588Z,6.95
2023-05-17T08:36:44.562Z,7.30
2023-05-17T08:39:12.619Z,8.52
2023-05-17T08:41:40.550Z,8.57
2023-05-17T08:44:07.833Z,7.37
2023-05-17T08:46:36.892Z,6.28
2023-05-17T08:49:06.249Z,7.55
2023-05-17T08:51:33.803Z,9.15
2023-05-17T08:54:07.063Z,6.85
2023-05-17T08:56:36.360Z,6.55
2023-05-17T08:59:05.737Z,7.22
2023-05-17T09:01:33.460Z,7.50
2023-05-17T09:04:01.171Z,9.52
2023-05-17T09:06:29.830Z,6.97
2023-05-17T09:08:58.492Z,8.07
2023-05-17T09:11:32.899Z,8.25
2023-05-17T09:16:30.076Z,10.52
2023-05-17T09:18:58.237Z,10.07
2023-05-17T09:21:26.557Z,8.35
2023-05-17T09:24:05.233Z,6.85
2023-05-17T09:26:44.849Z,8.25
2023-05-17T09:29:14.126Z,6.82
2023-05-17T09:31:41.827Z,9.75
2023-05-17T09:34:09.264Z,6.35
2023-05-17T09:36:38.377Z,6.35
2023-05-17T09:39:08.115Z,7.70
2023-05-17T09:41:46.860Z,6.12
2023-05-17T09:44:15.475Z,6.18
2023-05-17T09:46:47.996Z,6.28
2023-05-17T09:49:16.781Z,5.57
2023-05-17T09:51:45.853Z,7.18
2023-05-17T09:54:14.060Z,6.18
2023-05-17T09:56:41.955Z,8.48
2023-05-17T09:59:16.559Z,6.85
2023-05-17T10:01:47.723Z,7.15
2023-05-17T10:04:20.478Z,6.72
2023-05-17T10:06:52.112Z,6.20
2023-05-17T10:09:22.562Z,7.72
2023-05-17T10:11:51.131Z,8.45
2023-05-17T10:14:24.312Z,9.48
2023-05-17T10:16:52.268Z,9.75
2023-05-17T10:19:21.344Z,6.80
2023-05-17T10:21:50.828Z,7.07
2023-05-17T10:24:20.549Z,9.35
2023-05-17T10:26:50.082Z,8.43
2023-05-17T10:29:20.650Z,10.65
2023-05-17T10:31:50.254Z,10.63
2023-05-17T10:34:19.919Z,8.77
2023-05-17T10:36:49.322Z,9.68
2023-05-17T10:39:16.774Z,7.45
2023-05-17T10:41:46.842Z,6.68
2023-05-17T10:44:15.117Z,8.25
2023-05-17T10:46:54.595Z,6.50
2023-05-17T10:49:27.078Z,7.25
2023-05-17T10:51:54.734Z,9.45
2023-05-17T10:54:34.650Z,12.02
2023-05-17T10:57:07.915Z,8.95
2023-05-17T10:59:36.501Z,6.37
2023-05-17T11:02:05.734Z,6.53
2023-05-17T11:04:36.350Z,7.75
2023-05-17T11:07:16.905Z,5.53
2023-05-17T11:09:50.434Z,6.20
2023-05-17T11:12:33.479Z,8.90
2023-05-17T11:15:07.553Z,6.67
2023-05-17T11:17:46.722Z,6.95
2023-05-17T11:20:17.368Z,6.22
2023-05-17T11:23:06.006Z,6.30
2023-05-17T11:25:35.748Z,10.15
2023-05-17T11:28:07.834Z,6.53
2023-05-17T11:30:42.888Z,10.02
2023-05-17T11:33:21.192Z,9.43
2023-05-17T11:35:56.716Z,6.10
2023-05-17T11:38:30.305Z,6.87
2023-05-17T11:40:57.854Z,7.32
2023-05-17T11:43:28.299Z,9.55
2023-05-17T11:46:04.186Z,6.37
2023-05-17T11:48:32.283Z,6.32
2023-05-17T11:51:02.167Z,5.78
2023-05-17T11:53:31.719Z,8.57
2023-05-17T11:56:02.755Z,7.00
2023-05-17T11:58:30.101Z,5.47
2023-05-17T12:00:59.037Z,3.72
2023-05-17T12:03:31.933Z,3.97
2023-05-17T12:06:11.541Z,6.87
2023-05-17T12:08:40.484Z,4.35
2023-05-17T12:11:08.565Z,6.55
2023-05-17T12:13:36.091Z,7.32
2023-05-17T12:16:06.007Z,6.40
2023-05-17T12:18:40.896Z,8.55
2023-05-17T12:21:09.943Z,6.03
2023-05-17T12:23:44.752Z,6.20
2023-05-17T12:26:13.005Z,4.47
2023-05-17T12:28:42.868Z,5.80
2023-05-17T12:31:12.783Z,12.25
2023-05-17T12:33:42.374Z,6.12
2023-05-17T12:36:11.134Z,5.85
2023-05-17T12:38:41.739Z,5.45
2023-05-17T12:41:11.797Z,4.80
2023-05-17T12:43:40.184Z,6.90
2023-05-17T12:46:09.274Z,5.07
2023-05-17T12:48:38.076Z,6.40
2023-05-17T12:51:16.115Z,4.97
2023-05-17T12:53:48.709Z,5.68
2023-05-17T12:56:18.016Z,5.85
2023-05-17T12:59:16.691Z,6.70
2023-05-17T13:01:44.919Z,4.68
2023-05-17T13:04:13.607Z,7.35
2023-05-17T13:06:58.223Z,5.15
2023-05-17T13:09:28.857Z,4.60
2023-05-17T13:11:58.972Z,4.97
2023-05-17T13:14:53.381Z,7.75
2023-05-17T13:17:35.814Z,4.37
2023-05-17T13:20:04.816Z,17.65
2023-05-17T13:22:33.213Z,5.87
2023-05-17T13:25:00.398Z,5.07
2023-05-17T13:27:28.194Z,7.00
2023-05-17T13:29:55.394Z,7.55
2023-05-17T13:32:22.631Z,6.22
2023-05-17T13:34:50.220Z,7.40
2023-05-17T13:37:17.338Z,7.85
2023-05-17T13:39:44.581Z,7.28
2023-05-17T13:42:12.744Z,9.45
2023-05-17T13:44:40.261Z,5.25
2023-05-17T13:47:07.761Z,6.22
2023-05-17T13:49:35.214Z,5.53
2023-05-17T13:52:03.513Z,5.45
2023-05-17T13:54:30.667Z,7.90
2023-05-17T13:56:58.205Z,14.35
2023-05-17T13:59:25.303Z,6.43
2023-05-17T14:01:53.063Z,9.10
2023-05-17T14:04:21.414Z,6.15
2023-05-17T14:06:49.917Z,5.97
2023-05-17T14:09:18.357Z,5.05
2023-05-17T14:11:45.838Z,5.97
2023-05-17T14:14:12.915Z,6.50
2023-05-17T14:16:40.054Z,12.10
2023-05-17T14:19:07.634Z,8.05
2023-05-17T14:21:34.935Z,9.80
2023-05-17T14:24:02.142Z,6.00
2023-05-17T14:26:29.580Z,9.77
2023-05-17T14:28:56.774Z,12.15
2023-05-17T14:31:23.891Z,6.07
2023-05-17T14:33:51.515Z,4.28
2023-05-17T14:36:18.704Z,4.78
2023-05-17T14:38:46.123Z,10.82
2023-05-17T14:41:13.617Z,5.62
2023-05-17T14:43:40.888Z,4.78
2023-05-17T14:46:08.006Z,5.32
2023-05-17T14:48:35.579Z,8.55
2023-05-17T14:51:03.680Z,8.88
2023-05-17T14:53:30.885Z,8.98
2023-05-17T14:55:58.940Z,4.45
2023-05-17T14:58:26.397Z,3.60
2023-05-17T15:01:05.083Z,4.03
2023-05-17T15:03:34.168Z,6.15
2023-05-17T15:06:04.177Z,4.20
2023-05-17T15:08:34.509Z,6.65
2023-05-17T15:11:02.029Z,3.78
2023-05-17T15:13:29.249Z,5.55
2023-05-17T15:15:56.708Z,4.32
2023-05-17T15:18:24.039Z,5.12
2023-05-17T15:20:51.204Z,4.65
2023-05-17T15:23:18.612Z,5.70
2023-05-17T15:25:45.722Z,4.35
2023-05-17T15:28:12.970Z,3.67
2023-05-17T15:30:41.901Z,5.47
2023-05-17T15:33:09.809Z,4.37
2023-05-17T15:35:41.407Z,3.67
2023-05-17T15:38:08.920Z,4.03
2023-05-17T15:40:36.105Z,7.05
2023-05-17T15:43:03.261Z,3.78
2023-05-17T15:45:31.273Z,7.28
2023-05-17T15:48:01.779Z,3.70
2023-05-17T15:50:29.081Z,4.80
2023-05-17T15:52:56.511Z,15.27
2023-05-17T15:55:23.652Z,4.50
2023-05-17T15:57:50.963Z,3.60
2023-05-17T16:00:18.584Z,4.20
2023-05-17T16:02:46.031Z,6.60
2023-05-17T16:05:13.196Z,10.00
2023-05-17T16:07:40.324Z,4.50
2023-05-17T16:10:08.568Z,4.35
2023-05-17T16:12:35.958Z,3.53
2023-05-17T16:15:03.119Z,2.62
2023-05-17T16:17:30.708Z,5.95
2023-05-17T16:19:58.104Z,2.55
2023-05-17T16:22:25.428Z,4.03
2023-05-17T16:24:56.950Z,3.22
2023-05-17T16:27:24.068Z,4.18
2023-05-17T16:29:51.204Z,5.30
2023-05-17T16:32:18.633Z,7.32
2023-05-17T16:34:45.737Z,6.07
2023-05-17T16:37:13.080Z,6.65
2023-05-17T16:39:40.669Z,3.97
2023-05-17T16:42:07.821Z,4.03
2023-05-17T16:44:34.961Z,5.20
2023-05-17T16:47:02.553Z,3.33
2023-05-17T16:49:30.504Z,3.87
2023-05-17T16:51:57.655Z,5.07
2023-05-17T16:54:28.113Z,4.37
2023-05-17T16:56:55.878Z,3.95
2023-05-17T16:59:22.986Z,4.93
2023-05-17T17:01:50.582Z,5.78
2023-05-17T17:04:17.807Z,4.60
2023-05-17T17:06:45.954Z,5.72
2023-05-17T17:09:13.478Z,6.95
2023-05-17T17:11:40.784Z,7.37
2023-05-17T17:14:08.037Z,3.33
2023-05-17T17:16:35.598Z,5.40
2023-05-17T17:19:03.693Z,5.40
2023-05-17T17:21:36.325Z,4.87
2023-05-17T17:24:05.751Z,10.65
2023-05-17T17:26:35.413Z,13.18
2023-05-17T17:29:08.153Z,9.85
2023-05-17T17:31:35.749Z,7.65
2023-05-17T17:34:02.929Z,6.00
2023-05-17T17:36:30.441Z,6.95
2023-05-17T17:38:57.947Z,6.45
2023-05-17T17:41:25.110Z,5.00
2023-05-17T17:43:52.365Z,5.90
2023-05-17T17:46:19.797Z,4.93
2023-05-17T17:48:46.934Z,3.83
2023-05-17T17:51:14.019Z,3.78
2023-05-17T17:53:41.942Z,5.28
2023-05-17T17:56:09.133Z,7.20
2023-05-17T17:58:36.629Z,3.17
2023-05-17T18:01:04.368Z,6.93
2023-05-17T18:03:31.814Z,3.40
2023-05-17T18:05:58.885Z,3.22
2023-05-17T18:08:26.009Z,3.25
2023-05-17T18:10:53.506Z,2.97
2023-05-17T18:13:20.608Z,3.12
2023-05-17T18:15:47.707Z,4.10
2023-05-17T18:18:15.550Z,3.45
2023-05-17T18:20:42.666Z,3.42
2023-05-17T18:23:09.780Z,3.22
2023-05-17T18:25:37.247Z,3.90
2023-05-17T18:28:05.420Z,4.50
2023-05-17T18:30:33.518Z,6.07
2023-05-17T18:33:01.005Z,7.85
2023-05-17T18:35:28.167Z,4.40
2023-05-17T18:37:55.396Z,6.10
2023-05-17T18:40:22.804Z,3.70
2023-05-17T18:42:49.913Z,4.82
2023-05-17T18:45:17.049Z,3.58
2023-05-17T18:47:44.745Z,5.32
2023-05-17T18:50:11.864Z,4.18
2023-05-17T18:52:38.969Z,6.10
2023-05-17T18:55:06.516Z,42.22
2023-05-17T18:57:33.653Z,4.47
2023-05-17T19:00:00.770Z,5.10
2023-05-17T19:02:28.280Z,4.93
2023-05-17T19:04:55.698Z,5.55
2023-05-17T19:07:22.801Z,9.20
2023-05-17T19:09:50.263Z,6.78
2023-05-17T19:12:17.463Z,5.50
2023-05-17T19:14:44.563Z,5.57
2023-05-17T19:17:12.001Z,5.28
2023-05-17T19:19:39.152Z,5.12
2023-05-17T19:22:06.356Z,8.95
2023-05-17T19:24:33.917Z,8.18
2023-05-17T19:27:01.015Z,7.30
2023-05-17T19:29:28.813Z,6.30
2023-05-17T19:31:56.423Z,5.43
2023-05-17T19:34:23.617Z,4.22
2023-05-17T19:36:50.783Z,6.90
2023-05-17T19:39:19.579Z,6.55
2023-05-17T19:41:46.731Z,5.50
2023-05-17T19:44:13.857Z,4.32
2023-05-17T19:46:41.288Z,5.95
2023-05-17T19:49:08.395Z,5.25
2023-05-17T19:51:35.604Z,6.00
2023-05-17T19:54:03.042Z,4.72
2023-05-17T19:56:30.256Z,4.05
2023-05-17T19:58:57.517Z,5.30
2023-05-17T20:01:24.958Z,5.45
2023-05-17T20:03:52.559Z,5.30
2023-05-17T20:06:19.965Z,6.25
2023-05-17T20:08:47.162Z,6.47
2023-05-17T20:11:14.744Z,4.68
2023-05-17T20:13:41.903Z,4.15
2023-05-17T20:16:12.702Z,6.55
2023-05-17T20:18:42.694Z,6.80
2023-05-17T20:21:11.397Z,5.32
2023-05-17T20:23:38.765Z,4.93
2023-05-17T20:26:06.225Z,3.90
2023-05-17T20:28:33.319Z,4.32
2023-05-17T20:31:00.840Z,3.87
2023-05-17T20:33:28.296Z,5.18
2023-05-17T20:35:55.592Z,3.42
2023-05-17T20:38:22.793Z,3.55
2023-05-17T20:40:51.976Z,3.22
2023-05-17T20:43:19.787Z,4.87
2023-05-17T20:45:47.017Z,4.03
2023-05-17T20:48:14.522Z,3.30
2023-05-17T20:50:41.788Z,3.55
2023-05-17T20:53:10.600Z,4.68
2023-05-17T20:55:38.187Z,3.42
2023-05-17T20:58:05.676Z,4.05
2023-05-17T21:00:32.805Z,5.45
2023-05-17T21:03:00.461Z,4.35
2023-05-17T21:05:28.481Z,5.50
2023-05-17T21:07:56.598Z,4.80
2023-05-17T21:10:24.064Z,4.72
2023-05-17T21:12:51.220Z,3.22
2023-05-17T21:15:18.377Z,3.95
2023-05-17T21:17:45.913Z,4.57
2023-05-17T21:20:13.545Z,2.75
2023-05-17T21:22:40.811Z,4.25
2023-05-17T21:25:08.687Z,4.55
2023-05-17T21:27:35.922Z,5.32
2023-05-17T21:30:03.442Z,3.72
2023-05-17T21:32:31.367Z,5.05
2023-05-17T21:37:26.815Z,4.57
2023-05-17T21:39:54.266Z,4.55
2023-05-17T21:42:21.456Z,4.55
2023-05-17T21:44:48.700Z,2.80
2023-05-17T21:47:16.192Z,5.12
2023-05-17T21:49:43.327Z,3.60
2023-05-17T21:52:10.462Z,3.80
2023-05-17T21:54:37.937Z,4.60
2023-05-17T21:57:05.360Z,5.65
2023-05-17T21:59:32.699Z,3.60
2023-05-17T22:02:00.299Z,5.20
2023-05-17T22:04:27.786Z,4.32
2023-05-17T22:06:56.339Z,3.55
2023-05-17T22:09:23.454Z,3.12
2023-05-17T22:11:50.908Z,3.78
2023-05-17T22:14:18.031Z,5.87
2023-05-17T22:16:45.159Z,3.25
2023-05-17T22:19:12.622Z,4.78
2023-05-17T22:21:39.775Z,5.12
2023-05-17T22:24:07.203Z,5.20
2023-05-17T22:26:34.578Z,2.97
2023-05-17T22:29:01.727Z,3.45
2023-05-17T22:31:29.047Z,3.65
2023-05-17T22:33:56.493Z,3.85
2023-05-17T22:36:24.872Z,3.42
2023-05-17T22:38:52.296Z,5.50
2023-05-17T22:41:19.719Z,2.58
2023-05-17T22:43:46.799Z,3.75
2023-05-17T22:46:13.992Z,3.08
2023-05-17T22:48:41.491Z,3.05
2023-05-17T22:51:08.767Z,3.22
2023-05-17T22:53:35.903Z,2.90
2023-05-17T22:56:03.339Z,2.50
2023-05-17T22:58:30.501Z,3.35
2023-05-17T23:00:57.720Z,4.05
2023-05-17T23:03:25.197Z,3.05
2023-05-17T23:06:02.073Z,5.78
2023-05-17T23:08:30.241Z,3.65
2023-05-17T23:10:58.473Z,2.87
2023-05-17T23:13:26.306Z,4.10
2023-05-17T23:15:54.014Z,2.72
2023-05-17T23:18:21.167Z,3.28
2023-05-17T23:20:49.028Z,3.35
2023-05-17T23:23:16.648Z,3.25
2023-05-17T23:25:48.530Z,2.47
2023-05-17T23:28:15.872Z,2.65
2023-05-17T23:30:44.587Z,3.97
2023-05-17T23:33:11.846Z,2.62
2023-05-17T23:35:39.055Z,2.83
2023-05-17T23:38:07.284Z,2.80
2023-05-17T23:40:34.505Z,2.65
2023-05-17T23:43:01.663Z,3.40
2023-05-17T23:45:29.878Z,2.62
2023-05-17T23:48:00.346Z,3.22
2023-05-17T23:50:27.871Z,2.33
2023-05-17T23:52:55.999Z,3.35
2023-05-17T23:55:23.195Z,4.30
2023-05-17T23:57:50.301Z,4.45
